createdAt,value
2019-02-21T00:02:34.272Z,26.55
2019-02-21T00:05:17.736Z,24.77
2019-02-21T00:08:08.820Z,21.97
2019-02-21T00:10:52.274Z,34.75
2019-02-21T00:13:43.481Z,30.43
2019-02-21T00:16:27.252Z,30.23
2019-02-21T00:19:18.433Z,37.42
2019-02-21T00:22:01.915Z,36.48
2019-02-21T00:24:53.326Z,27.20
2019-02-21T00:27:37.534Z,34.78
2019-02-21T00:30:21.437Z,29.30
2019-02-21T00:33:05.972Z,36.42
2019-02-21T00:35:57.080Z,31.12
2019-02-21T00:38:40.517Z,33.80
2019-02-21T00:41:31.810Z,40.55
2019-02-21T00:44:15.465Z,35.95
2019-02-21T00:46:59.532Z,32.78
2019-02-21T00:49:50.721Z,36.95
2019-02-21T00:52:34.426Z,31.80
2019-02-21T00:55:27.769Z,39.70
2019-02-21T00:58:19.762Z,30.17
2019-02-21T01:01:10.932Z,39.38
2019-02-21T01:03:54.318Z,38.40
2019-02-21T01:06:38.368Z,37.50
2019-02-21T01:09:21.672Z,35.40
2019-02-21T01:12:05.753Z,34.33
2019-02-21T01:14:56.927Z,25.10
2019-02-21T01:17:40.620Z,32.35
2019-02-21T01:20:24.223Z,25.52
2019-02-21T01:23:15.883Z,24.47
2019-02-21T01:25:59.537Z,31.90
2019-02-21T01:28:50.596Z,26.77
2019-02-21T01:31:34.151Z,30.25
2019-02-21T01:34:25.223Z,28.02
2019-02-21T01:37:09.002Z,27.55
2019-02-21T01:39:52.456Z,27.50
2019-02-21T01:42:43.541Z,26.77
2019-02-21T01:45:27.556Z,21.65
2019-02-21T01:48:18.586Z,27.73
2019-02-21T01:51:02.617Z,29.90
2019-02-21T01:53:53.723Z,24.85
2019-02-21T01:56:37.372Z,27.07
2019-02-21T01:59:28.895Z,27.77
2019-02-21T02:02:12.807Z,31.68
2019-02-21T02:05:03.858Z,24.35
2019-02-21T02:07:49.274Z,28.02
2019-02-21T02:10:40.269Z,29.85
2019-02-21T02:13:25.009Z,28.80
2019-02-21T02:16:16.170Z,32.73
2019-02-21T02:19:00.310Z,24.18
2019-02-21T02:21:51.346Z,27.87
2019-02-21T02:24:35.866Z,29.25
2019-02-21T02:27:26.824Z,24.55
2019-02-21T02:30:10.148Z,25.80
2019-02-21T02:33:01.353Z,35.60
2019-02-21T02:35:44.868Z,31.02
2019-02-21T02:38:36.053Z,26.27
2019-02-21T02:41:19.545Z,30.48
2019-02-21T02:44:10.617Z,26.35
2019-02-21T02:46:42.615Z,22.58
2019-02-21T02:49:34.018Z,25.50
2019-02-21T02:52:06.366Z,23.20
2019-02-21T02:54:38.653Z,32.33
2019-02-21T03:00:34.378Z,25.32
2019-02-21T03:03:25.619Z,29.90
2019-02-21T03:06:09.175Z,27.22
2019-02-21T03:09:00.371Z,28.77
2019-02-21T03:11:45.704Z,25.77
2019-02-21T03:14:36.690Z,27.48
2019-02-21T03:17:20.346Z,27.70
2019-02-21T03:20:11.375Z,26.12
2019-02-21T03:22:54.819Z,32.63
2019-02-21T03:25:45.866Z,35.30
2019-02-21T03:28:30.266Z,30.88
2019-02-21T03:37:13.478Z,28.80
2019-02-21T03:39:57.448Z,29.12
2019-02-21T03:42:48.964Z,27.80
2019-02-21T03:45:33.379Z,24.00
2019-02-21T03:48:24.432Z,28.32
2019-02-21T03:51:08.241Z,35.80
2019-02-21T03:53:59.366Z,27.07
2019-02-21T03:56:42.639Z,27.50
2019-02-21T03:59:33.879Z,23.83
2019-02-21T04:02:17.403Z,30.10
2019-02-21T04:05:09.479Z,34.48
2019-02-21T04:07:52.820Z,28.42
2019-02-21T04:10:43.880Z,26.15
2019-02-21T04:13:27.998Z,28.30
2019-02-21T04:16:19.049Z,30.45
2019-02-21T04:19:02.312Z,31.35
2019-02-21T04:21:53.304Z,34.83
2019-02-21T04:24:37.344Z,34.27
2019-02-21T04:27:21.219Z,26.77
2019-02-21T04:30:12.308Z,27.42
2019-02-21T04:32:56.489Z,31.02
2019-02-21T04:35:28.469Z,29.80
2019-02-21T04:38:13.193Z,30.15
2019-02-21T04:41:04.603Z,30.32
2019-02-21T04:43:36.615Z,37.80
2019-02-21T04:46:27.685Z,30.45
2019-02-21T04:49:11.433Z,26.75
2019-02-21T04:52:13.501Z,29.75
2019-02-21T04:55:05.649Z,30.70
2019-02-21T04:57:50.796Z,31.95
2019-02-21T05:00:41.868Z,27.60
2019-02-21T05:03:26.198Z,26.52
2019-02-21T05:06:17.174Z,26.17
2019-02-21T05:09:00.758Z,29.82
2019-02-21T05:11:53.507Z,38.80
2019-02-21T05:14:37.054Z,33.90
2019-02-21T05:17:21.083Z,27.32
2019-02-21T05:20:05.227Z,26.27
2019-02-21T05:22:56.354Z,31.65
2019-02-21T05:25:40.575Z,29.23
2019-02-21T05:28:32.966Z,32.67
2019-02-21T05:34:32.299Z,25.77
2019-02-21T05:37:42.255Z,28.07
2019-02-21T05:40:46.392Z,29.05
2019-02-21T05:43:56.277Z,33.60
2019-02-21T05:46:44.781Z,27.90
2019-02-21T05:49:54.713Z,25.45
2019-02-21T05:52:50.454Z,29.35
2019-02-21T05:56:00.284Z,30.70
2019-02-21T05:59:03.314Z,30.30
2019-02-21T06:02:13.303Z,28.73
2019-02-21T06:05:15.734Z,29.60
2019-02-21T06:08:25.683Z,34.10
2019-02-21T06:11:28.764Z,32.85
2019-02-21T06:14:38.688Z,27.17
2019-02-21T06:17:41.263Z,31.45
2019-02-21T06:20:51.427Z,27.42
2019-02-21T06:23:55.457Z,31.27
2019-02-21T06:27:05.397Z,25.08
2019-02-21T06:29:56.875Z,26.85
2019-02-21T06:32:48.085Z,31.85
2019-02-21T06:35:33.088Z,31.65
2019-02-21T06:38:24.515Z,27.20
2019-02-21T06:41:07.941Z,31.20
2019-02-21T06:43:58.980Z,30.72
2019-02-21T06:46:42.726Z,30.97
2019-02-21T06:52:42.100Z,26.70
2019-02-21T06:55:14.297Z,24.65
2019-02-21T06:57:57.988Z,32.33
2019-02-21T07:00:49.155Z,31.10
2019-02-21T07:03:21.136Z,32.67
2019-02-21T07:05:53.179Z,44.05
2019-02-21T07:08:44.389Z,33.53
2019-02-21T07:11:28.414Z,30.68
2019-02-21T07:14:19.428Z,30.32
2019-02-21T07:16:51.271Z,26.80
2019-02-21T07:19:35.567Z,23.73
2019-02-21T07:22:26.664Z,28.30
2019-02-21T07:28:22.359Z,31.73
2019-02-21T07:31:06.299Z,32.42
2019-02-21T07:33:57.468Z,32.28
2019-02-21T07:36:41.169Z,27.60
2019-02-21T07:39:35.240Z,36.58
2019-02-21T07:42:17.384Z,47.43
2019-02-21T07:45:00.770Z,29.00
2019-02-21T07:47:51.823Z,28.12
2019-02-21T07:50:36.041Z,33.45
2019-02-21T07:53:27.141Z,34.98
2019-02-21T07:56:10.737Z,34.67
2019-02-21T07:59:01.754Z,29.45
2019-02-21T08:01:45.273Z,30.55
2019-02-21T08:04:37.155Z,30.15
2019-02-21T08:07:40.551Z,29.72
2019-02-21T08:10:33.890Z,38.67
2019-02-21T08:13:22.878Z,30.62
2019-02-21T08:16:13.919Z,33.23
2019-02-21T08:18:58.175Z,31.07
2019-02-21T08:21:49.288Z,39.15
2019-02-21T08:24:53.251Z,28.65
2019-02-21T08:27:44.300Z,29.30
2019-02-21T08:30:29.202Z,33.13
2019-02-21T08:36:34.464Z,28.95
2019-02-21T08:39:25.491Z,36.28
2019-02-21T08:42:09.240Z,31.20
2019-02-21T08:45:00.414Z,26.57
2019-02-21T08:47:44.342Z,33.78
2019-02-21T08:50:36.490Z,38.85
2019-02-21T08:53:20.029Z,35.03
2019-02-21T08:56:11.223Z,28.52
2019-02-21T08:58:55.293Z,34.10
2019-02-21T09:01:46.834Z,27.82
2019-02-21T09:04:31.130Z,35.63
2019-02-21T09:07:22.146Z,34.25
2019-02-21T09:10:06.205Z,29.40
2019-02-21T09:12:38.288Z,32.85
2019-02-21T09:15:21.783Z,41.40
2019-02-21T09:18:12.927Z,40.90
2019-02-21T09:20:57.112Z,31.27
2019-02-21T09:23:40.544Z,30.12
2019-02-21T09:26:24.080Z,30.08
2019-02-21T09:29:15.228Z,39.80
2019-02-21T09:31:59.433Z,30.05
2019-02-21T09:34:50.880Z,31.00
2019-02-21T09:37:42.314Z,38.38
2019-02-21T09:40:28.418Z,32.48
2019-02-21T09:43:18.991Z,31.82
2019-02-21T09:46:03.241Z,41.15
2019-02-21T09:48:54.431Z,34.73
2019-02-21T09:51:38.259Z,37.85
2019-02-21T09:54:30.319Z,40.73
2019-02-21T09:57:13.811Z,37.25
2019-02-21T10:00:05.222Z,40.23
2019-02-21T10:02:54.346Z,34.83
2019-02-21T10:05:44.191Z,40.05
2019-02-21T10:08:27.680Z,49.80
2019-02-21T10:11:11.594Z,35.65
2019-02-21T10:14:03.758Z,39.13
2019-02-21T10:16:49.613Z,34.15
2019-02-21T10:19:35.388Z,36.08
2019-02-21T10:22:26.267Z,40.43
2019-02-21T10:25:23.112Z,34.55
2019-02-21T10:28:19.707Z,36.88
2019-02-21T10:31:03.540Z,36.33
2019-02-21T10:33:47.547Z,39.18
2019-02-21T10:36:38.762Z,35.10
2019-02-21T10:39:22.986Z,34.08
2019-02-21T10:42:14.067Z,36.55
2019-02-21T10:44:57.791Z,34.65
2019-02-21T10:47:48.873Z,29.42
2019-02-21T10:50:33.025Z,30.08
2019-02-21T10:53:24.218Z,39.45
2019-02-21T10:56:06.448Z,36.28
2019-02-21T10:58:50.392Z,33.13
2019-02-21T11:01:41.460Z,36.10
2019-02-21T11:04:25.535Z,35.03
2019-02-21T11:07:16.539Z,36.95
2019-02-21T11:10:00.451Z,34.25
2019-02-21T11:12:51.492Z,28.12
2019-02-21T11:15:36.501Z,29.98
2019-02-21T11:18:27.716Z,30.25
2019-02-21T11:21:12.095Z,28.73
2019-02-21T11:24:03.245Z,31.80
2019-02-21T11:26:46.979Z,27.02
2019-02-21T11:29:38.041Z,31.45
2019-02-21T11:32:21.968Z,31.35
2019-02-21T11:35:13.111Z,28.65
2019-02-21T11:37:56.383Z,23.65
2019-02-21T11:40:47.483Z,31.85
2019-02-21T11:43:31.140Z,22.70
2019-02-21T11:46:22.174Z,26.12
2019-02-21T11:49:05.552Z,26.80
2019-02-21T11:51:37.681Z,26.10
2019-02-21T11:54:09.724Z,27.10
2019-02-21T11:57:00.859Z,33.10
2019-02-21T11:59:44.874Z,23.90
2019-02-21T12:02:38.896Z,26.87
2019-02-21T12:05:32.514Z,29.85
2019-02-21T12:08:19.599Z,25.97
2019-02-21T12:11:04.458Z,30.27
2019-02-21T12:13:56.523Z,29.25
2019-02-21T12:16:28.509Z,38.45
2019-02-21T12:19:19.726Z,23.12
2019-02-21T12:22:03.973Z,30.72
2019-02-21T12:24:47.813Z,24.85
2019-02-21T12:27:32.550Z,26.05
2019-02-21T12:30:17.197Z,31.62
2019-02-21T12:33:08.809Z,26.40
2019-02-21T12:35:52.835Z,23.25
2019-02-21T12:38:43.978Z,30.10
2019-02-21T12:41:27.838Z,24.30
2019-02-21T12:44:18.850Z,22.65
2019-02-21T12:47:03.062Z,28.17
2019-02-21T12:49:55.412Z,30.95
2019-02-21T12:52:48.685Z,22.98
2019-02-21T12:55:39.801Z,27.65
2019-02-21T12:58:23.358Z,35.13
2019-02-21T13:01:14.569Z,30.80
2019-02-21T13:03:58.629Z,25.65
2019-02-21T13:06:49.709Z,32.33
2019-02-21T13:09:33.569Z,27.60
2019-02-21T13:15:27.608Z,37.65
2019-02-21T13:18:15.875Z,29.18
2019-02-21T13:20:57.430Z,25.75
2019-02-21T13:23:48.678Z,32.73
2019-02-21T13:26:32.879Z,28.92
2019-02-21T13:29:23.854Z,32.00
2019-02-21T13:32:07.656Z,23.73
2019-02-21T13:34:51.795Z,31.37
2019-02-21T13:37:42.978Z,32.78
2019-02-21T13:40:26.373Z,26.93
2019-02-21T13:43:17.612Z,26.80
2019-02-21T13:46:01.717Z,24.45
2019-02-21T13:48:52.745Z,22.67
2019-02-21T13:51:36.467Z,23.38
2019-02-21T13:54:27.613Z,21.00
2019-02-21T13:57:11.801Z,24.50
2019-02-21T14:00:02.956Z,20.52
2019-02-21T14:02:48.693Z,18.65
2019-02-21T14:05:39.926Z,23.65
2019-02-21T14:08:23.607Z,24.20
2019-02-21T14:11:14.537Z,19.62
2019-02-21T14:13:58.480Z,21.75
2019-02-21T14:19:53.037Z,23.45
2019-02-21T14:22:42.155Z,19.90
2019-02-21T14:25:40.710Z,20.43
2019-02-21T14:28:37.646Z,17.40
2019-02-21T14:31:21.317Z,21.65
2019-02-21T14:34:06.210Z,22.17
2019-02-21T14:36:49.779Z,18.15
2019-02-21T14:39:40.867Z,25.55
2019-02-21T14:42:25.047Z,18.27
2019-02-21T14:45:17.335Z,20.70
2019-02-21T14:48:02.909Z,18.75
2019-02-21T14:50:54.031Z,20.70
2019-02-21T14:53:37.934Z,22.32
2019-02-21T14:56:29.110Z,22.62
2019-02-21T14:59:12.969Z,19.25
2019-02-21T15:02:06.155Z,19.50
2019-02-21T15:05:10.095Z,20.65
2019-02-21T15:08:01.566Z,18.42
2019-02-21T15:10:45.443Z,23.65
2019-02-21T15:13:36.509Z,20.25
2019-02-21T15:16:20.495Z,23.30
2019-02-21T15:19:12.648Z,18.95
2019-02-21T15:21:57.030Z,22.27
2019-02-21T15:24:48.330Z,19.23
2019-02-21T15:27:32.397Z,20.32
2019-02-21T15:30:24.737Z,24.95
2019-02-21T15:33:09.692Z,21.80
2019-02-21T15:36:00.912Z,17.60
2019-02-21T15:38:44.670Z,21.82
2019-02-21T15:41:28.752Z,24.20
2019-02-21T15:44:19.786Z,19.55
2019-02-21T15:47:03.195Z,28.67
2019-02-21T15:49:54.428Z,19.65
2019-02-21T15:52:38.393Z,22.77
2019-02-21T15:55:32.034Z,28.67
2019-02-21T15:58:20.656Z,23.87
2019-02-21T16:01:14.237Z,21.85
2019-02-21T16:04:16.910Z,16.45
2019-02-21T16:07:09.072Z,24.07
2019-02-21T16:09:52.633Z,20.88
2019-02-21T16:12:44.265Z,19.10
2019-02-21T16:15:48.503Z,29.05
2019-02-21T16:18:40.127Z,27.98
2019-02-21T16:21:24.391Z,29.10
2019-02-21T16:24:17.101Z,22.05
2019-02-21T16:27:00.548Z,21.73
2019-02-21T16:29:51.591Z,19.75
2019-02-21T16:32:35.828Z,19.32
2019-02-21T16:35:27.469Z,21.70
2019-02-21T16:38:31.625Z,21.02
2019-02-21T16:41:22.859Z,23.60
2019-02-21T16:44:07.281Z,19.15
2019-02-21T16:46:58.408Z,23.62
2019-02-21T16:49:42.181Z,29.32
2019-02-21T16:52:25.832Z,20.92
2019-02-21T16:55:18.404Z,21.40
2019-02-21T16:58:02.478Z,19.70
2019-02-21T17:00:53.242Z,24.25
2019-02-21T17:03:40.393Z,27.15
2019-02-21T17:06:24.228Z,24.23
2019-02-21T17:09:15.699Z,20.82
2019-02-21T17:11:58.020Z,26.77
2019-02-21T17:14:49.067Z,20.88
2019-02-21T17:17:33.099Z,26.68
2019-02-21T17:20:24.181Z,27.45
2019-02-21T17:23:08.381Z,29.48
2019-02-21T17:25:59.503Z,23.90
2019-02-21T17:28:45.064Z,26.23
2019-02-21T17:31:37.309Z,25.35
2019-02-21T17:34:40.209Z,27.07
2019-02-21T17:37:31.429Z,26.87
2019-02-21T17:40:16.799Z,31.20
2019-02-21T17:43:08.183Z,29.87
2019-02-21T17:45:51.787Z,30.92
2019-02-21T17:48:42.842Z,32.25
2019-02-21T17:51:26.873Z,35.33
2019-02-21T17:53:58.868Z,37.65
2019-02-21T17:56:42.408Z,36.23
2019-02-21T17:59:33.493Z,26.12
2019-02-21T18:02:17.049Z,35.45
2019-02-21T18:05:08.798Z,29.50
2019-02-21T18:07:52.819Z,26.30
2019-02-21T18:10:43.947Z,29.10
2019-02-21T18:13:29.678Z,32.33
2019-02-21T18:16:14.422Z,26.17
2019-02-21T18:18:58.521Z,26.33
2019-02-21T18:21:49.535Z,27.73
2019-02-21T18:24:32.748Z,30.00
2019-02-21T18:27:23.948Z,37.55
2019-02-21T18:30:07.785Z,32.30
2019-02-21T18:32:58.812Z,29.07
2019-02-21T18:35:42.156Z,27.30
2019-02-21T18:38:14.129Z,33.40
2019-02-21T18:41:05.310Z,40.08
2019-02-21T18:43:48.905Z,33.30
2019-02-21T18:46:40.057Z,34.90
2019-02-21T18:49:24.068Z,32.60
2019-02-21T18:52:15.258Z,34.35
2019-02-21T18:54:58.795Z,30.27
2019-02-21T18:57:43.070Z,31.95
2019-02-21T19:00:34.191Z,36.33
2019-02-21T19:03:18.210Z,33.30
2019-02-21T19:06:09.218Z,30.62
2019-02-21T19:08:52.779Z,38.05
2019-02-21T19:11:43.865Z,38.75
2019-02-21T19:14:27.792Z,36.80
2019-02-21T19:17:11.599Z,34.40
2019-02-21T19:20:02.651Z,34.30
2019-02-21T19:22:47.120Z,42.60
2019-02-21T19:25:30.882Z,33.70
2019-02-21T19:28:03.152Z,41.42
2019-02-21T19:30:58.843Z,35.25
2019-02-21T19:33:54.844Z,34.25
2019-02-21T19:36:41.273Z,35.30
2019-02-21T19:39:32.674Z,38.83
2019-02-21T19:42:16.985Z,33.23
2019-02-21T19:45:05.549Z,35.90
2019-02-21T19:47:56.814Z,35.70
2019-02-21T19:50:40.647Z,32.63
2019-02-21T19:53:23.987Z,29.80
2019-02-21T19:56:07.626Z,34.65
2019-02-21T19:58:39.677Z,36.45
2019-02-21T20:01:11.774Z,34.85
2019-02-21T20:03:43.722Z,36.70
2019-02-21T20:06:27.845Z,33.40
2019-02-21T20:09:19.451Z,31.10
2019-02-21T20:12:03.275Z,31.97
2019-02-21T20:14:47.752Z,31.85
2019-02-21T20:17:39.054Z,46.23
2019-02-21T20:20:22.798Z,35.05
2019-02-21T20:23:13.878Z,29.32
2019-02-21T20:25:59.047Z,35.63
2019-02-21T20:28:50.270Z,27.10
2019-02-21T20:31:34.349Z,25.80
2019-02-21T20:34:06.743Z,25.37
2019-02-21T20:36:51.515Z,27.02
2019-02-21T20:39:36.128Z,30.70
2019-02-21T20:42:20.012Z,35.80
2019-02-21T20:44:52.161Z,28.60
2019-02-21T20:47:43.295Z,25.80
2019-02-21T20:50:26.649Z,25.65
2019-02-21T20:53:17.849Z,30.50
2019-02-21T20:56:03.025Z,27.42
2019-02-21T20:58:54.492Z,24.72
2019-02-21T21:01:40.253Z,29.35
2019-02-21T21:04:31.395Z,22.25
2019-02-21T21:07:24.790Z,26.42
2019-02-21T21:13:07.887Z,23.98
2019-02-21T21:15:59.137Z,21.70
2019-02-21T21:18:43.326Z,20.30
2019-02-21T21:21:26.718Z,17.95
2019-02-21T21:24:10.373Z,21.40
2019-02-21T21:27:01.885Z,23.73
2019-02-21T21:29:46.002Z,31.07
2019-02-21T21:32:37.291Z,24.50
2019-02-21T21:35:21.445Z,22.22
2019-02-21T21:38:23.403Z,26.95
2019-02-21T21:41:16.854Z,23.40
2019-02-21T21:44:01.931Z,21.87
2019-02-21T21:46:48.169Z,22.60
2019-02-21T21:49:39.392Z,22.22
2019-02-21T21:52:22.712Z,19.85
2019-02-21T21:55:13.977Z,25.65
2019-02-21T21:57:57.549Z,27.98
2019-02-21T22:00:41.239Z,28.45
2019-02-21T22:03:33.439Z,27.07
2019-02-21T22:06:18.078Z,28.83
2019-02-21T22:09:09.459Z,20.97
2019-02-21T22:11:55.532Z,25.08
2019-02-21T22:14:46.650Z,24.60
2019-02-21T22:17:30.201Z,26.77
2019-02-21T22:20:21.272Z,22.95
2019-02-21T22:23:05.612Z,27.48
2019-02-21T22:25:57.631Z,23.10
2019-02-21T22:28:41.342Z,23.07
2019-02-21T22:31:32.439Z,28.05
2019-02-21T22:34:16.471Z,29.05
2019-02-21T22:37:00.551Z,26.15
2019-02-21T22:39:51.750Z,30.45
2019-02-21T22:42:42.898Z,26.05
2019-02-21T22:45:27.950Z,23.12
2019-02-21T22:48:19.117Z,29.52
2019-02-21T22:51:03.164Z,28.12
2019-02-21T22:53:54.582Z,20.75
2019-02-21T22:56:38.294Z,29.23
2019-02-21T22:59:29.498Z,24.57
2019-02-21T23:02:12.807Z,24.72
2019-02-21T23:05:31.136Z,24.95
2019-02-21T23:08:19.914Z,27.00
2019-02-21T23:11:11.219Z,27.05
2019-02-21T23:13:55.780Z,23.85
2019-02-21T23:16:39.123Z,26.42
2019-02-21T23:19:24.198Z,28.27
2019-02-21T23:22:15.301Z,26.27
2019-02-21T23:24:59.012Z,21.62
2019-02-21T23:27:50.136Z,25.10
2019-02-21T23:30:33.998Z,21.02
2019-02-21T23:33:25.992Z,27.95
2019-02-21T23:36:10.229Z,22.80
2019-02-21T23:38:54.331Z,27.35
2019-02-21T23:41:45.490Z,28.25
2019-02-21T23:44:29.376Z,28.23
2019-02-21T23:47:12.843Z,23.27
2019-02-21T23:49:57.505Z,26.25
2019-02-21T23:52:48.668Z,29.20
2019-02-21T23:55:32.516Z,30.88
2019-02-21T23:58:24.017Z,23.50
